createdAt,value
2022-10-23T00:01:51.287Z,40.75
2022-10-23T00:03:59.138Z,38.72
2022-10-23T00:06:04.416Z,49.58
2022-10-23T00:08:05.920Z,37.17
2022-10-23T00:10:07.827Z,38.50
2022-10-23T00:12:09.376Z,39.60
2022-10-23T00:14:11.048Z,40.30
2022-10-23T00:16:12.901Z,36.70
2022-10-23T00:18:14.376Z,36.20
2022-10-23T00:20:17.064Z,41.35
2022-10-23T00:22:18.533Z,34.38
2022-10-23T00:24:20.008Z,34.85
2022-10-23T00:26:21.572Z,34.80
2022-10-23T00:28:23.145Z,36.53
2022-10-23T00:30:24.606Z,36.10
2022-10-23T00:32:26.834Z,36.50
2022-10-23T00:34:28.490Z,36.13
2022-10-23T00:36:30.098Z,35.97
2022-10-23T00:38:31.620Z,35.35
2022-10-23T00:40:33.199Z,36.78
2022-10-23T00:42:34.709Z,34.80
2022-10-23T00:44:36.149Z,35.60
2022-10-23T00:46:39.239Z,35.03
2022-10-23T00:48:40.778Z,33.15
2022-10-23T00:50:42.637Z,34.10
2022-10-23T00:52:48.717Z,31.13
2022-10-23T00:54:50.196Z,30.15
2022-10-23T00:56:54.769Z,30.08
2022-10-23T00:58:56.216Z,30.30
2022-10-23T01:00:57.796Z,31.08
2022-10-23T01:02:59.893Z,29.58
2022-10-23T01:05:01.558Z,28.27
2022-10-23T01:07:18.098Z,27.17
2022-10-23T01:09:41.729Z,27.02
2022-10-23T01:11:52.760Z,27.65
2022-10-23T01:14:15.773Z,27.38
2022-10-23T01:16:23.955Z,25.60
2022-10-23T01:18:38.865Z,26.73
2022-10-23T01:20:46.709Z,27.80
2022-10-23T01:23:10.473Z,26.80
2022-10-23T01:25:39.475Z,27.83
2022-10-23T01:27:46.451Z,27.73
2022-10-23T01:29:59.825Z,25.98
2022-10-23T01:32:09.657Z,28.35
2022-10-23T01:36:20.608Z,27.90
2022-10-23T01:38:38.318Z,27.00
2022-10-23T01:41:02.935Z,26.27
2022-10-23T01:43:13.094Z,26.20
2022-10-23T01:45:32.636Z,26.90
2022-10-23T01:47:36.217Z,26.50
2022-10-23T01:49:40.967Z,28.50
2022-10-23T01:51:49.597Z,28.40
2022-10-23T01:53:55.849Z,28.48
2022-10-23T01:55:59.605Z,29.98
2022-10-23T01:58:02.953Z,31.98
2022-10-23T02:00:11.737Z,32.83
2022-10-23T02:02:14.696Z,33.28
2022-10-23T02:04:23.958Z,33.33
2022-10-23T02:06:25.605Z,32.00
2022-10-23T02:08:27.736Z,33.75
2022-10-23T02:10:52.596Z,31.40
2022-10-23T02:13:13.096Z,31.83
2022-10-23T02:15:14.505Z,30.38
2022-10-23T02:17:41.258Z,31.15
2022-10-23T02:19:50.393Z,32.55
2022-10-23T02:21:59.729Z,33.30
2022-10-23T02:24:05.328Z,31.67
2022-10-23T02:26:14.650Z,32.08
2022-10-23T02:28:19.920Z,32.03
2022-10-23T02:30:21.729Z,32.78
2022-10-23T02:32:26.420Z,33.97
2022-10-23T02:34:28.095Z,35.17
2022-10-23T02:36:29.974Z,32.38
2022-10-23T02:38:33.775Z,32.90
2022-10-23T02:40:46.045Z,32.75
2022-10-23T02:43:22.991Z,32.45
2022-10-23T02:45:37.340Z,32.50
2022-10-23T02:47:46.673Z,32.45
2022-10-23T02:50:10.057Z,33.00
2022-10-23T02:52:23.062Z,32.35
2022-10-23T02:54:30.461Z,32.13
2022-10-23T02:57:16.289Z,31.70
2022-10-23T02:59:36.097Z,33.95
2022-10-23T03:02:09.361Z,35.00
2022-10-23T03:04:12.095Z,32.03
2022-10-23T03:06:13.791Z,32.25
2022-10-23T03:08:15.678Z,33.53
2022-10-23T03:10:17.177Z,34.60
2022-10-23T03:12:18.698Z,37.17
2022-10-23T03:14:20.202Z,32.55
2022-10-23T03:16:21.769Z,33.25
2022-10-23T03:18:23.228Z,31.58
2022-10-23T03:20:24.879Z,30.42
2022-10-23T03:22:26.519Z,29.58
2022-10-23T03:24:28.013Z,30.98
2022-10-23T03:26:29.629Z,30.45
2022-10-23T03:28:31.102Z,32.88
2022-10-23T03:30:32.660Z,33.83
2022-10-23T03:32:34.146Z,33.67
2022-10-23T03:34:35.679Z,30.77
2022-10-23T03:36:38.171Z,35.20
2022-10-23T03:38:39.845Z,31.25
2022-10-23T03:40:42.306Z,31.98
2022-10-23T03:42:43.895Z,40.30
2022-10-23T03:44:45.439Z,34.40
2022-10-23T03:46:46.987Z,33.97
2022-10-23T03:48:48.421Z,30.65
2022-10-23T03:50:49.895Z,35.13
2022-10-23T03:52:51.424Z,34.75
2022-10-23T03:54:52.855Z,31.30
2022-10-23T03:56:57.392Z,31.08
2022-10-23T03:58:59.332Z,29.90
2022-10-23T04:01:00.931Z,33.25
2022-10-23T04:03:02.535Z,30.70
2022-10-23T04:05:04.205Z,33.67
2022-10-23T04:07:05.839Z,33.30
2022-10-23T04:09:07.879Z,36.03
2022-10-23T04:11:09.523Z,36.40
2022-10-23T04:13:11.048Z,38.30
2022-10-23T04:15:12.621Z,36.60
2022-10-23T04:17:14.171Z,33.13
2022-10-23T04:19:17.195Z,32.45
2022-10-23T04:21:19.420Z,35.08
2022-10-23T04:23:20.960Z,30.67
2022-10-23T04:25:22.416Z,37.10
2022-10-23T04:27:23.962Z,38.22
2022-10-23T04:29:25.728Z,33.15
2022-10-23T04:31:27.321Z,28.83
2022-10-23T04:33:28.980Z,28.98
2022-10-23T04:35:30.563Z,26.35
2022-10-23T04:37:32.068Z,27.33
2022-10-23T04:39:33.658Z,25.77
2022-10-23T04:41:35.128Z,25.50
2022-10-23T04:43:37.032Z,25.52
2022-10-23T04:45:38.497Z,25.75
2022-10-23T04:47:39.957Z,25.65
2022-10-23T04:49:41.410Z,28.48
2022-10-23T04:51:42.871Z,27.00
2022-10-23T04:53:44.345Z,25.95
2022-10-23T04:55:53.978Z,26.58
2022-10-23T04:57:55.456Z,25.33
2022-10-23T04:59:56.932Z,26.23
2022-10-23T05:01:58.474Z,25.70
2022-10-23T05:04:00.031Z,28.30
2022-10-23T05:06:01.479Z,27.65
2022-10-23T05:08:02.990Z,27.05
2022-10-23T05:10:06.191Z,26.25
2022-10-23T05:12:08.478Z,26.23
2022-10-23T05:14:09.996Z,26.55
2022-10-23T05:16:21.519Z,25.80
2022-10-23T05:18:38.148Z,25.67
2022-10-23T05:20:40.347Z,25.33
2022-10-23T05:22:44.528Z,26.05
2022-10-23T05:24:49.682Z,24.83
2022-10-23T05:26:53.024Z,25.45
2022-10-23T05:28:54.648Z,25.35
2022-10-23T05:30:59.112Z,25.27
2022-10-23T05:33:02.365Z,24.45
2022-10-23T05:35:09.406Z,24.33
2022-10-23T05:37:14.298Z,24.30
2022-10-23T05:39:16.339Z,23.80
2022-10-23T05:41:18.099Z,24.20
2022-10-23T05:43:19.631Z,23.48
2022-10-23T05:45:21.326Z,22.42
2022-10-23T05:47:22.824Z,26.15
2022-10-23T05:49:25.660Z,34.53
2022-10-23T05:51:27.114Z,47.47
2022-10-23T05:53:28.636Z,31.42
2022-10-23T05:55:30.148Z,26.00
2022-10-23T05:57:34.986Z,25.20
2022-10-23T05:59:36.484Z,25.63
2022-10-23T06:01:38.247Z,46.47
2022-10-23T06:03:40.686Z,22.50
2022-10-23T06:05:42.119Z,26.73
2022-10-23T06:07:44.056Z,24.15
2022-10-23T06:09:45.749Z,26.40
2022-10-23T06:11:47.529Z,27.95
2022-10-23T06:13:49.172Z,24.85
2022-10-23T06:15:50.730Z,26.50
2022-10-23T06:17:52.186Z,29.35
2022-10-23T06:19:53.757Z,33.08
2022-10-23T06:21:55.297Z,32.67
2022-10-23T06:23:56.797Z,26.45
2022-10-23T06:25:58.397Z,26.73
2022-10-23T06:27:59.868Z,25.10
2022-10-23T06:30:01.391Z,24.80
2022-10-23T06:32:02.937Z,26.10
2022-10-23T06:34:04.431Z,26.70
2022-10-23T06:36:08.301Z,26.52
2022-10-23T06:38:10.708Z,27.60
2022-10-23T06:40:12.295Z,26.70
2022-10-23T06:42:13.743Z,26.40
2022-10-23T06:44:15.226Z,25.52
2022-10-23T06:46:18.291Z,23.95
2022-10-23T06:48:19.803Z,23.83
2022-10-23T06:50:21.911Z,22.33
2022-10-23T06:52:45.231Z,23.20
2022-10-23T06:54:44.853Z,21.67
2022-10-23T06:56:46.318Z,22.05
2022-10-23T06:58:47.812Z,21.45
2022-10-23T07:00:49.387Z,20.02
2022-10-23T07:02:51.783Z,19.98
2022-10-23T07:04:53.261Z,18.73
2022-10-23T07:06:57.243Z,16.98
2022-10-23T07:08:59.657Z,16.13
2022-10-23T07:11:08.839Z,17.25
2022-10-23T07:13:11.645Z,15.48
2022-10-23T07:15:13.242Z,15.85
2022-10-23T07:17:14.698Z,15.10
2022-10-23T07:19:16.161Z,16.38
2022-10-23T07:21:17.721Z,16.10
2022-10-23T07:23:19.155Z,16.13
2022-10-23T07:25:25.561Z,17.55
2022-10-23T07:27:27.211Z,15.70
2022-10-23T07:29:28.797Z,15.60
2022-10-23T07:31:31.075Z,14.23
2022-10-23T07:33:32.529Z,16.10
2022-10-23T07:35:37.068Z,15.45
2022-10-23T07:37:40.993Z,14.57
2022-10-23T07:39:42.626Z,14.82
2022-10-23T07:41:44.049Z,13.38
2022-10-23T07:43:45.637Z,12.75
2022-10-23T07:45:48.485Z,14.63
2022-10-23T07:47:51.783Z,13.38
2022-10-23T07:49:53.250Z,12.82
2022-10-23T07:51:54.826Z,12.63
2022-10-23T07:53:56.438Z,11.30
2022-10-23T07:56:04.106Z,10.55
2022-10-23T07:58:05.622Z,11.07
2022-10-23T08:00:07.697Z,10.90
2022-10-23T08:02:11.625Z,10.80
2022-10-23T08:04:13.216Z,10.65
2022-10-23T08:06:14.906Z,10.73
2022-10-23T08:08:16.442Z,11.25
2022-10-23T08:10:17.922Z,10.52
2022-10-23T08:12:19.388Z,10.20
2022-10-23T08:14:20.907Z,10.23
2022-10-23T08:16:23.351Z,10.27
2022-10-23T08:18:24.805Z,10.20
2022-10-23T08:20:26.321Z,10.80
2022-10-23T08:22:27.849Z,11.35
2022-10-23T08:24:29.754Z,10.73
2022-10-23T08:26:31.510Z,11.00
2022-10-23T08:28:33.327Z,11.18
2022-10-23T08:30:35.625Z,11.80
2022-10-23T08:32:37.071Z,10.10
2022-10-23T08:34:38.609Z,10.30
2022-10-23T08:36:40.298Z,9.45
2022-10-23T08:38:41.773Z,12.70
2022-10-23T08:40:47.616Z,12.40
2022-10-23T08:43:03.221Z,13.05
2022-10-23T08:45:21.408Z,14.15
2022-10-23T08:47:33.813Z,12.18
2022-10-23T08:49:49.350Z,11.43
2022-10-23T08:51:55.168Z,16.60
2022-10-23T08:54:02.850Z,21.38
2022-10-23T08:56:17.812Z,17.27
2022-10-23T08:58:29.553Z,11.15
2022-10-23T09:00:31.574Z,10.70
2022-10-23T09:02:33.987Z,9.10
2022-10-23T09:04:35.572Z,9.35
2022-10-23T09:06:43.644Z,8.13
2022-10-23T09:08:59.383Z,8.15
2022-10-23T09:11:14.727Z,7.68
2022-10-23T09:13:34.946Z,8.23
2022-10-23T09:15:46.826Z,7.05
2022-10-23T09:17:54.072Z,6.80
2022-10-23T09:20:13.575Z,6.85
2022-10-23T09:24:21.101Z,16.02
2022-10-23T09:26:23.246Z,9.68
2022-10-23T09:28:27.933Z,8.00
2022-10-23T09:30:40.941Z,8.43
2022-10-23T09:32:43.504Z,9.13
2022-10-23T09:34:54.251Z,9.38
2022-10-23T09:37:04.648Z,11.98
2022-10-23T09:39:28.350Z,8.85
2022-10-23T09:41:38.706Z,7.55
2022-10-23T09:43:40.181Z,8.45
2022-10-23T09:45:42.652Z,7.28
2022-10-23T09:47:44.404Z,6.65
2022-10-23T09:49:54.042Z,7.80
2022-10-23T09:52:18.012Z,7.88
2022-10-23T09:54:24.103Z,7.97
2022-10-23T09:56:40.884Z,9.57
2022-10-23T09:59:03.233Z,9.07
2022-10-23T10:01:05.763Z,12.25
2022-10-23T10:03:18.955Z,13.50
2022-10-23T10:05:24.961Z,13.23
2022-10-23T10:07:31.159Z,11.38
2022-10-23T10:09:34.960Z,12.15
2022-10-23T10:11:48.508Z,10.98
2022-10-23T10:14:17.084Z,10.23
2022-10-23T10:16:29.016Z,9.40
2022-10-23T10:18:39.698Z,10.02
2022-10-23T10:21:01.616Z,9.15
2022-10-23T10:23:11.537Z,10.40
2022-10-23T10:25:36.115Z,9.30
2022-10-23T10:27:48.051Z,8.63
2022-10-23T10:29:52.656Z,7.35
2022-10-23T10:32:27.412Z,8.10
2022-10-23T10:34:49.595Z,7.72
2022-10-23T10:36:54.938Z,8.10
2022-10-23T10:39:05.506Z,8.88
2022-10-23T10:41:35.653Z,7.22
2022-10-23T10:43:47.826Z,7.25
2022-10-23T10:45:56.326Z,7.32
2022-10-23T10:48:23.325Z,7.93
2022-10-23T10:50:51.638Z,8.02
2022-10-23T10:53:07.474Z,7.50
2022-10-23T10:55:12.275Z,8.07
2022-10-23T10:57:34.788Z,7.05
2022-10-23T10:59:41.779Z,7.93
2022-10-23T11:01:54.141Z,7.97
2022-10-23T11:04:04.195Z,8.70
2022-10-23T11:06:12.920Z,8.43
2022-10-23T11:08:22.355Z,8.02
2022-10-23T11:10:24.045Z,9.90
2022-10-23T11:12:28.006Z,10.32
2022-10-23T11:14:33.095Z,10.45
2022-10-23T11:16:39.532Z,9.50
2022-10-23T11:19:01.361Z,9.57
2022-10-23T11:21:10.533Z,9.27
2022-10-23T11:23:30.646Z,9.68
2022-10-23T11:25:44.069Z,9.93
2022-10-23T11:27:56.546Z,9.25
2022-10-23T11:30:19.329Z,11.20
2022-10-23T11:32:58.444Z,14.77
2022-10-23T11:35:14.191Z,14.02
2022-10-23T11:37:17.924Z,14.80
2022-10-23T11:39:29.559Z,11.88
2022-10-23T11:41:34.006Z,9.43
2022-10-23T11:44:01.336Z,10.30
2022-10-23T11:46:30.192Z,9.35
2022-10-23T11:48:40.643Z,9.03
2022-10-23T11:50:45.150Z,9.20
2022-10-23T11:53:18.245Z,9.30
2022-10-23T11:55:24.333Z,9.35
2022-10-23T11:57:25.812Z,9.55
2022-10-23T11:59:32.745Z,10.90
2022-10-23T12:01:40.192Z,9.10
2022-10-23T12:04:11.427Z,8.35
2022-10-23T12:06:23.796Z,8.50
2022-10-23T12:08:28.293Z,8.88
2022-10-23T12:10:36.769Z,8.65
2022-10-23T12:12:43.213Z,9.00
2022-10-23T12:14:50.438Z,8.43
2022-10-23T12:16:52.001Z,9.18
2022-10-23T12:18:54.141Z,9.35
2022-10-23T12:21:00.619Z,9.70
2022-10-23T12:23:23.984Z,10.55
2022-10-23T12:25:49.800Z,10.20
2022-10-23T12:28:06.966Z,9.80
2022-10-23T12:30:21.084Z,8.90
2022-10-23T12:32:37.914Z,9.82
2022-10-23T12:35:05.811Z,9.75
2022-10-23T12:37:12.416Z,9.88
2022-10-23T12:39:27.957Z,9.20
2022-10-23T12:41:32.836Z,9.30
2022-10-23T12:43:37.672Z,8.75
2022-10-23T12:45:40.767Z,9.95
2022-10-23T12:47:47.520Z,10.25
2022-10-23T12:49:50.336Z,9.68
2022-10-23T12:52:06.195Z,10.23
2022-10-23T12:54:19.424Z,14.05
2022-10-23T12:56:22.078Z,12.70
2022-10-23T12:58:30.710Z,11.85
2022-10-23T13:00:32.285Z,10.10
2022-10-23T13:02:34.420Z,10.55
2022-10-23T13:04:36.980Z,9.32
2022-10-23T13:06:39.532Z,9.82
2022-10-23T13:08:44.352Z,9.98
2022-10-23T13:10:47.602Z,11.50
2022-10-23T13:12:59.633Z,9.65
2022-10-23T13:15:06.879Z,10.07
2022-10-23T13:17:11.758Z,10.30
2022-10-23T13:19:24.368Z,9.27
2022-10-23T13:21:29.096Z,9.77
2022-10-23T13:23:33.423Z,9.68
2022-10-23T13:25:36.772Z,9.48
2022-10-23T13:27:38.372Z,9.77
2022-10-23T13:29:42.064Z,9.05
2022-10-23T13:31:43.588Z,9.15
2022-10-23T13:33:47.882Z,8.65
2022-10-23T13:35:57.736Z,9.10
2022-10-23T13:38:08.347Z,9.40
2022-10-23T13:40:25.727Z,11.15
2022-10-23T13:42:27.241Z,11.35
2022-10-23T13:44:29.030Z,9.43
2022-10-23T13:46:31.263Z,8.85
2022-10-23T13:48:32.780Z,8.50
2022-10-23T13:50:34.253Z,8.63
2022-10-23T13:52:35.740Z,9.00
2022-10-23T13:54:37.184Z,9.10
2022-10-23T13:56:38.965Z,9.10
2022-10-23T13:58:41.209Z,9.75
2022-10-23T14:00:46.051Z,9.52
2022-10-23T14:02:47.644Z,9.82
2022-10-23T14:04:50.231Z,11.05
2022-10-23T14:06:58.322Z,11.55
2022-10-23T14:09:00.044Z,23.17
2022-10-23T14:11:01.606Z,16.48
2022-10-23T14:13:03.198Z,10.98
2022-10-23T14:15:04.974Z,11.80
2022-10-23T14:17:06.481Z,10.75
2022-10-23T14:19:08.604Z,11.05
2022-10-23T14:21:13.696Z,12.80
2022-10-23T14:23:15.251Z,10.93
2022-10-23T14:25:16.871Z,14.00
2022-10-23T14:27:18.449Z,16.48
2022-10-23T14:29:24.496Z,12.73
2022-10-23T14:31:26.839Z,17.33
2022-10-23T14:33:28.328Z,17.13
2022-10-23T14:35:29.888Z,19.10
2022-10-23T14:37:31.551Z,16.55
2022-10-23T14:39:33.114Z,17.83
2022-10-23T14:41:34.630Z,16.15
2022-10-23T14:43:36.116Z,17.45
2022-10-23T14:45:37.619Z,19.48
2022-10-23T14:47:39.127Z,20.60
2022-10-23T14:49:41.226Z,20.95
2022-10-23T14:51:42.824Z,13.38
2022-10-23T14:53:44.419Z,13.73
2022-10-23T14:55:45.881Z,14.00
2022-10-23T14:57:47.329Z,14.07
2022-10-23T14:59:49.556Z,12.80
2022-10-23T15:01:51.193Z,15.68
2022-10-23T15:03:55.824Z,14.82
2022-10-23T15:05:57.394Z,14.35
2022-10-23T15:07:59.427Z,14.82
2022-10-23T15:10:00.901Z,15.15
2022-10-23T15:12:04.561Z,15.80
2022-10-23T15:14:06.234Z,15.85
2022-10-23T15:16:10.161Z,15.32
2022-10-23T15:18:11.815Z,14.18
2022-10-23T15:20:13.333Z,16.63
2022-10-23T15:22:14.826Z,24.15
2022-10-23T15:24:17.388Z,21.58
2022-10-23T15:26:22.820Z,22.05
2022-10-23T15:28:24.780Z,21.23
2022-10-23T15:30:26.503Z,22.20
2022-10-23T15:32:27.991Z,24.15
2022-10-23T15:34:30.238Z,25.00
2022-10-23T15:36:32.015Z,25.58
2022-10-23T15:38:33.504Z,19.85
2022-10-23T15:40:35.061Z,19.23
2022-10-23T15:42:36.593Z,17.80
2022-10-23T15:44:40.267Z,18.80
2022-10-23T15:46:42.074Z,18.95
2022-10-23T15:48:43.580Z,20.15
2022-10-23T15:50:45.084Z,25.50
2022-10-23T15:52:46.768Z,25.42
2022-10-23T15:54:48.356Z,31.38
2022-10-23T15:56:52.266Z,32.75
2022-10-23T15:58:53.736Z,36.58
2022-10-23T16:00:55.297Z,38.65
2022-10-23T16:02:56.860Z,37.42
2022-10-23T16:04:58.372Z,33.05
2022-10-23T16:06:59.820Z,26.73
2022-10-23T16:09:01.688Z,33.30
2022-10-23T16:11:04.078Z,34.45
2022-10-23T16:13:05.564Z,36.72
2022-10-23T16:15:08.326Z,48.80
2022-10-23T16:17:10.614Z,42.97
2022-10-23T16:19:12.657Z,38.88
2022-10-23T16:21:23.194Z,61.13
2022-10-23T16:23:24.659Z,75.43
2022-10-23T16:25:26.173Z,65.80
2022-10-23T16:27:27.793Z,69.70
2022-10-23T16:29:29.627Z,63.90
2022-10-23T16:31:31.771Z,63.30
2022-10-23T16:33:33.211Z,79.38
2022-10-23T16:35:34.717Z,82.80
2022-10-23T16:37:36.209Z,87.95
2022-10-23T16:39:38.069Z,105.88
2022-10-23T16:41:39.691Z,97.18
2022-10-23T16:43:41.475Z,99.68
2022-10-23T16:45:43.018Z,110.22
2022-10-23T16:47:44.490Z,106.20
2022-10-23T16:49:45.949Z,100.43
2022-10-23T16:51:47.460Z,100.55
2022-10-23T16:53:49.504Z,93.45
2022-10-23T16:55:51.100Z,85.45
2022-10-23T16:57:52.648Z,83.95
2022-10-23T16:59:54.934Z,56.97
2022-10-23T17:01:56.506Z,54.67
2022-10-23T17:03:58.085Z,148.57
2022-10-23T17:06:01.667Z,137.18
2022-10-23T17:08:03.862Z,179.82
2022-10-23T17:10:05.786Z,105.43
2022-10-23T17:12:07.638Z,243.30
2022-10-23T17:14:15.370Z,216.98
2022-10-23T17:16:26.565Z,127.80
2022-10-23T17:18:28.050Z,142.18
2022-10-23T17:20:29.668Z,117.00
2022-10-23T17:22:31.227Z,77.72
2022-10-23T17:24:32.658Z,109.22
2022-10-23T17:26:34.657Z,75.35
2022-10-23T17:28:41.671Z,84.47
2022-10-23T17:30:43.209Z,96.60
2022-10-23T17:32:44.978Z,148.15
2022-10-23T17:34:46.680Z,83.20
2022-10-23T17:36:53.664Z,124.85
2022-10-23T17:38:55.374Z,107.40
2022-10-23T17:40:56.911Z,110.53
2022-10-23T17:42:59.606Z,96.90
2022-10-23T17:45:01.255Z,108.63
2022-10-23T17:47:02.738Z,83.10
2022-10-23T17:49:05.305Z,61.10
2022-10-23T17:51:18.745Z,131.32
2022-10-23T17:53:20.185Z,111.30
2022-10-23T17:55:21.736Z,74.95
2022-10-23T17:59:29.638Z,58.13
2022-10-23T18:01:31.762Z,58.60
2022-10-23T18:03:34.565Z,65.10
2022-10-23T18:05:36.156Z,55.72
2022-10-23T18:07:37.820Z,47.75
2022-10-23T18:09:39.487Z,65.45
2022-10-23T18:11:46.853Z,111.80
2022-10-23T18:13:50.637Z,102.43
2022-10-23T18:15:52.199Z,215.70
2022-10-23T18:17:53.921Z,196.27
2022-10-23T18:19:59.578Z,142.25
2022-10-23T18:22:03.931Z,93.72
2022-10-23T18:24:05.765Z,228.43
2022-10-23T18:26:18.437Z,151.75
2022-10-23T18:28:20.531Z,171.20
2022-10-23T18:30:22.082Z,104.57
2022-10-23T18:32:23.814Z,70.60
2022-10-23T18:34:25.657Z,66.97
2022-10-23T18:36:30.578Z,70.90
2022-10-23T18:38:32.030Z,192.13
2022-10-23T18:40:34.552Z,374.13
2022-10-23T18:42:36.110Z,282.02
2022-10-23T18:44:38.244Z,430.80
2022-10-23T18:46:39.774Z,279.33
2022-10-23T18:48:42.249Z,251.75
2022-10-23T18:50:43.687Z,146.05
2022-10-23T18:52:45.454Z,121.60
2022-10-23T18:54:46.905Z,157.07
2022-10-23T18:56:49.064Z,152.73
2022-10-23T18:58:52.094Z,206.80
2022-10-23T19:00:53.549Z,247.25
2022-10-23T19:02:55.171Z,156.02
2022-10-23T19:04:56.688Z,168.85
2022-10-23T19:06:58.182Z,208.73
2022-10-23T19:08:59.654Z,117.20
2022-10-23T19:11:01.235Z,113.53
2022-10-23T19:13:02.794Z,97.47
2022-10-23T19:15:04.515Z,128.95
2022-10-23T19:17:22.815Z,111.95
2022-10-23T19:19:31.708Z,96.50
2022-10-23T19:21:36.993Z,94.35
2022-10-23T19:23:41.031Z,95.65
2022-10-23T19:25:45.289Z,88.65
2022-10-23T19:27:47.723Z,110.10
2022-10-23T19:29:51.331Z,128.77
2022-10-23T19:31:53.587Z,78.88
2022-10-23T19:33:55.299Z,204.48
2022-10-23T19:35:56.769Z,132.77
2022-10-23T19:37:58.228Z,216.85
2022-10-23T19:39:59.855Z,152.65
2022-10-23T19:42:01.358Z,124.78
2022-10-23T19:44:02.855Z,107.88
2022-10-23T19:46:07.865Z,103.65
2022-10-23T19:48:12.638Z,90.63
2022-10-23T19:50:14.186Z,98.18
2022-10-23T19:52:15.653Z,120.95
2022-10-23T19:54:17.167Z,98.38
2022-10-23T19:56:18.703Z,96.22
2022-10-23T19:58:20.209Z,84.00
2022-10-23T20:00:21.933Z,74.82
2022-10-23T20:02:23.534Z,50.47
2022-10-23T20:04:25.365Z,60.35
2022-10-23T20:06:29.688Z,51.95
2022-10-23T20:08:34.253Z,49.20
2022-10-23T20:10:44.133Z,50.95
2022-10-23T20:12:51.615Z,50.75
2022-10-23T20:15:04.312Z,69.47
2022-10-23T20:17:05.861Z,70.05
2022-10-23T20:19:10.312Z,58.28
2022-10-23T20:21:12.074Z,40.38
2022-10-23T20:23:13.524Z,34.50
2022-10-23T20:25:15.101Z,31.45
2022-10-23T20:27:18.536Z,31.35
2022-10-23T20:29:20.796Z,33.97
2022-10-23T20:31:24.793Z,36.78
2022-10-23T20:33:26.253Z,41.83
2022-10-23T20:35:27.773Z,39.67
2022-10-23T20:37:29.207Z,42.03
2022-10-23T20:39:33.378Z,40.92
2022-10-23T20:41:37.196Z,51.95
2022-10-23T20:43:38.705Z,47.58
2022-10-23T20:45:40.129Z,52.42
2022-10-23T20:47:41.837Z,56.20
2022-10-23T20:49:43.572Z,52.20
2022-10-23T20:51:45.485Z,48.22
2022-10-23T20:53:48.192Z,43.75
2022-10-23T20:55:49.776Z,42.20
2022-10-23T20:57:51.274Z,42.30
2022-10-23T20:59:53.344Z,41.80
2022-10-23T21:01:56.236Z,40.20
2022-10-23T21:04:00.409Z,42.97
2022-10-23T21:06:11.062Z,48.88
2022-10-23T21:08:12.573Z,50.60
2022-10-23T21:10:14.027Z,52.15
2022-10-23T21:12:15.628Z,45.33
2022-10-23T21:14:17.153Z,47.85
2022-10-23T21:16:26.074Z,50.25
2022-10-23T21:18:45.413Z,49.72
2022-10-23T21:20:47.811Z,47.97
2022-10-23T21:22:53.639Z,47.35
2022-10-23T21:24:56.975Z,49.85
2022-10-23T21:26:58.481Z,53.15
2022-10-23T21:29:18.072Z,54.00
2022-10-23T21:31:21.749Z,50.35
2022-10-23T21:33:23.202Z,47.95
2022-10-23T21:35:27.778Z,51.40
2022-10-23T21:37:31.524Z,55.17
2022-10-23T21:39:33.419Z,55.22
2022-10-23T21:41:34.962Z,51.75
2022-10-23T21:43:36.596Z,49.63
2022-10-23T21:45:38.135Z,60.40
2022-10-23T21:47:39.744Z,56.85
2022-10-23T21:49:41.239Z,57.45
2022-10-23T21:51:42.740Z,53.10
2022-10-23T21:53:44.310Z,52.28
2022-10-23T21:55:45.801Z,49.78
2022-10-23T21:57:47.243Z,49.88
2022-10-23T21:59:48.890Z,50.22
2022-10-23T22:01:51.718Z,52.25
2022-10-23T22:03:54.228Z,52.30
2022-10-23T22:05:57.923Z,54.42
2022-10-23T22:07:59.631Z,58.25
2022-10-23T22:10:01.472Z,61.97
2022-10-23T22:12:02.981Z,60.28
2022-10-23T22:14:04.588Z,56.53
2022-10-23T22:16:06.220Z,59.55
2022-10-23T22:18:07.764Z,58.97
2022-10-23T22:20:09.452Z,56.85
2022-10-23T22:22:11.101Z,58.25
2022-10-23T22:24:12.535Z,58.20
2022-10-23T22:26:35.760Z,60.17
2022-10-23T22:28:37.328Z,58.92
2022-10-23T22:30:38.797Z,59.78
2022-10-23T22:32:40.395Z,58.95
2022-10-23T22:34:52.412Z,56.70
2022-10-23T22:36:55.071Z,59.45
2022-10-23T22:38:56.854Z,59.47
2022-10-23T22:41:02.362Z,60.90
2022-10-23T22:43:04.023Z,60.85
2022-10-23T22:45:06.090Z,59.65
2022-10-23T22:47:07.692Z,61.03
2022-10-23T22:49:09.553Z,63.55
2022-10-23T22:51:13.572Z,63.15
2022-10-23T22:53:16.736Z,63.17
2022-10-23T22:55:18.285Z,62.50
2022-10-23T22:57:19.827Z,61.33
2022-10-23T22:59:21.333Z,62.78
2022-10-23T23:01:33.954Z,62.45
2022-10-23T23:03:36.598Z,62.85
2022-10-23T23:05:45.885Z,61.63
2022-10-23T23:07:47.459Z,45.53
2022-10-23T23:09:49.065Z,63.45
2022-10-23T23:11:52.603Z,62.47
2022-10-23T23:13:54.354Z,62.38
2022-10-23T23:15:56.492Z,62.72
2022-10-23T23:17:58.306Z,63.58
2022-10-23T23:19:59.781Z,61.42
2022-10-23T23:22:02.545Z,65.03
2022-10-23T23:24:04.225Z,65.55
2022-10-23T23:26:07.063Z,64.05
2022-10-23T23:28:08.851Z,64.10
2022-10-23T23:30:10.720Z,67.38
2022-10-23T23:32:12.273Z,66.70
2022-10-23T23:34:13.768Z,65.85
2022-10-23T23:36:19.689Z,64.65
2022-10-23T23:38:21.116Z,64.63
2022-10-23T23:40:22.799Z,60.45
2022-10-23T23:42:24.441Z,60.33
2022-10-23T23:44:25.924Z,59.72
2022-10-23T23:46:27.392Z,61.38
2022-10-23T23:48:29.006Z,59.40
2022-10-23T23:50:30.508Z,59.58
2022-10-23T23:52:31.965Z,60.53
2022-10-23T23:54:33.598Z,58.38
2022-10-23T23:56:35.102Z,61.78
2022-10-23T23:58:36.688Z,61.53
